Time;durP1;ratioP1;P1;durP2;ratioP2;P2;SDS_P1;SDS_P2;PMS_P1;PMS_P2;Temp;Humidity;BMP_temperature;BMP_pressure;BME280_temperature;BME280_humidity;BME280_pressure;Samples;Min_cycle;Max_cycle;Signal;HPM_P1;HPM_P2
2022/12/10 00:01:17;;;;;;;70.73;22.53;;;;;;;6.46;97.22;96586.66;5087695;28;20191;-77
2022/12/10 00:03:44;;;;;;;59.43;22.23;;;;;;;6.46;97.71;96584.06;5088967;28;20545;-78
2022/12/10 00:06:15;;;;;;;63.83;21.43;;;;;;;6.34;97.76;96571.69;5087840;28;20194;-78
2022/12/10 00:08:42;;;;;;;61.10;20.70;;;;;;;6.25;97.20;96568.59;5085460;28;20221;-78
2022/12/10 00:11:12;;;;;;;34.83;19.00;;;;;;;6.18;97.38;96565.38;5090386;28;20306;-78
2022/12/10 00:13:40;;;;;;;39.13;19.07;;;;;;;6.09;98.86;96560.59;5077088;28;20214;-78
2022/12/10 00:16:10;;;;;;;48.87;19.97;;;;;;;6.22;98.33;96571.28;5074927;28;20721;-80
2022/12/10 00:18:37;;;;;;;45.07;19.93;;;;;;;6.24;97.26;96565.19;5067702;28;20196;-78
2022/12/10 00:21:10;;;;;;;43.50;20.40;;;;;;;6.42;97.30;96572.22;5071669;28;20234;-79
2022/12/10 00:23:38;;;;;;;38.80;20.10;;;;;;;6.56;97.04;96564.00;5067161;28;20309;-78
2022/12/10 00:26:15;;;;;;;40.20;18.60;;;;;;;6.45;96.22;96543.81;5068245;28;20203;-78
2022/12/10 00:28:44;;;;;;;34.97;20.40;;;;;;;6.66;96.30;96567.06;5067951;28;20680;-79
2022/12/10 00:31:13;;;;;;;43.07;19.57;;;;;;;6.53;96.59;96566.69;5067320;28;20588;-77
2022/12/10 00:33:42;;;;;;;40.53;19.63;;;;;;;6.41;95.67;96561.97;5068180;28;20579;-81
2022/12/10 00:36:18;;;;;;;44.13;18.97;;;;;;;6.40;96.44;96565.47;5070076;28;20242;-80
2022/12/10 00:38:46;;;;;;;39.23;17.90;;;;;;;6.63;96.59;96562.03;5068441;28;20198;-80
2022/12/10 00:41:14;;;;;;;40.53;18.83;;;;;;;6.57;96.93;96556.19;5067166;28;20246;-79
2022/12/10 00:43:42;;;;;;;52.70;18.60;;;;;;;6.66;95.95;96567.06;5067653;28;20334;-79
2022/12/10 00:46:12;;;;;;;41.80;19.20;;;;;;;6.68;95.76;96567.84;5067817;28;20327;-78
2022/12/10 00:48:40;;;;;;;49.33;19.50;;;;;;;6.61;95.73;96574.09;5049059;28;20291;-78
2022/12/10 00:51:13;;;;;;;35.73;16.67;;;;;;;6.57;96.60;96566.50;5068275;28;20281;-77
2022/12/10 00:53:42;;;;;;;35.97;18.07;;;;;;;6.53;96.26;96562.34;5048571;28;20195;-78
2022/12/10 00:56:11;;;;;;;49.93;19.23;;;;;;;6.56;96.28;96548.56;5049839;28;20247;-79
2022/12/10 00:58:38;;;;;;;48.47;18.83;;;;;;;6.41;95.36;96537.09;5048951;28;20802;-79
2022/12/10 01:01:13;;;;;;;56.83;19.20;;;;;;;6.55;95.73;96565.72;5067320;28;20230;-79
2022/12/10 01:03:40;;;;;;;46.00;19.47;;;;;;;6.55;96.64;96563.13;5067921;28;20211;-79
2022/12/10 01:06:22;;;;;;;47.90;17.77;;;;;;;6.76;96.27;96558.09;5049938;28;20885;-77
2022/12/10 01:08:50;;;;;;;53.87;19.37;;;;;;;6.74;94.92;96554.75;5068859;28;20195;-77
2022/12/10 01:11:19;;;;;;;64.20;19.10;;;;;;;6.59;95.40;96566.47;5065991;28;20195;-79
2022/12/10 01:13:47;;;;;;;50.47;19.57;;;;;;;6.54;96.70;96548.63;5069943;28;20215;-79
2022/12/10 01:16:17;;;;;;;58.37;20.77;;;;;;;6.44;96.15;96561.88;5067774;28;20318;-81
2022/12/10 01:18:44;;;;;;;52.37;21.47;;;;;;;6.39;96.73;96549.19;5068099;28;20196;-79
2022/12/10 01:21:17;;;;;;;48.07;21.57;;;;;;;6.47;97.21;96552.31;5068785;28;20227;-80
2022/12/10 01:23:46;;;;;;;70.97;22.13;;;;;;;6.42;96.56;96551.66;5067877;28;20186;-79
2022/12/10 01:26:16;;;;;;;57.13;20.23;;;;;;;6.26;97.30;96532.56;5073225;28;20209;-79
2022/12/10 01:28:44;;;;;;;52.07;19.80;;;;;;;6.39;97.39;96544.03;5068943;28;20225;-80
2022/12/10 01:31:15;;;;;;;63.60;21.20;;;;;;;6.32;96.79;96545.19;5069418;28;20199;-81
2022/12/10 01:33:43;;;;;;;76.97;22.73;;;;;;;6.31;97.54;96542.66;5068327;28;20589;-80
2022/12/10 01:36:13;;;;;;;72.70;20.90;;;;;;;6.28;97.48;96542.78;5067150;28;20230;-81
2022/12/10 01:38:42;;;;;;;61.67;21.57;;;;;;;6.07;97.38;96531.53;5073377;28;20199;-79
2022/12/10 01:41:18;;;;;;;67.90;21.67;;;;;;;6.00;98.33;96500.97;5037867;28;20260;-81
2022/12/10 01:44:01;;;;;;;54.13;22.17;;;;;;;6.19;97.54;96531.09;5053645;28;20212;-81
2022/12/10 01:46:31;;;;;;;65.93;22.37;;;;;;;6.03;97.74;96529.13;5072802;28;20203;-80
2022/12/10 01:49:00;;;;;;;55.33;19.37;;;;;;;5.95;97.23;96528.56;5073747;28;20210;-80
2022/12/10 01:51:31;;;;;;;41.87;18.27;;;;;;;6.12;97.71;96542.47;5077132;28;20519;-81
2022/12/10 01:53:58;;;;;;;46.97;19.23;;;;;;;6.27;98.42;96544.50;5057943;28;20203;-79
2022/12/10 01:56:25;;;;;;;38.40;19.00;;;;;;;6.26;96.99;96532.56;5066775;28;20312;-79
2022/12/10 01:58:55;;;;;;;56.90;19.10;;;;;;;6.26;96.93;96547.97;5047530;28;20322;-79
2022/12/10 02:01:50;;;;;;;60.73;18.53;;;;;;;6.07;96.22;96546.97;5066971;28;20190;-79
2022/12/10 02:04:25;;;;;;;57.87;20.57;;;;;;;6.01;97.42;96533.50;5049800;28;20280;-80
2022/12/10 02:07:21;;;;;;;46.00;17.87;;;;;;;5.91;98.01;96527.84;5065824;28;20641;-79
2022/12/10 02:09:52;;;;;;;55.40;19.10;;;;;;;5.85;97.68;96530.66;5066649;28;20190;-80
2022/12/10 02:12:28;;;;;;;57.53;19.63;;;;;;;5.85;98.01;96529.81;5059882;28;20203;-77
2022/12/10 02:15:02;;;;;;;72.30;19.63;;;;;;;5.78;98.25;96526.56;5088696;28;20235;-77
2022/12/10 02:17:42;;;;;;;82.27;19.50;;;;;;;5.59;99.93;96520.38;5072291;28;20686;-77
2022/12/10 02:20:14;;;;;;;86.83;21.27;;;;;;;5.62;100.00;96522.88;5072457;28;20225;-79
2022/12/10 02:22:50;;;;;;;49.87;20.30;;;;;;;5.76;100.00;96523.22;5102097;28;20197;-77
2022/12/10 02:25:23;;;;;;;40.50;17.13;;;;;;;6.04;100.00;96511.09;5076079;28;20718;-79
2022/12/10 02:28:12;;;;;;;37.20;18.10;;;;;;;6.17;99.86;96517.47;5072243;28;20204;-80
2022/12/10 02:30:42;;;;;;;38.23;19.80;;;;;;;6.35;98.99;96506.47;5090328;28;20198;-79
2022/12/10 02:33:12;;;;;;;41.93;18.77;;;;;;;6.48;97.97;96505.13;5089748;28;20662;-79
2022/12/10 02:35:41;;;;;;;39.60;18.73;;;;;;;6.62;97.29;96494.28;5072338;28;20227;-80
2022/12/10 02:38:19;;;;;;;30.60;17.43;;;;;;;6.75;97.03;96495.50;5073125;28;20292;-80
2022/12/10 02:40:52;;;;;;;31.20;17.07;;;;;;;6.76;96.56;96476.56;5074387;28;20205;-79
2022/12/10 02:43:22;;;;;;;30.70;17.47;;;;;;;6.96;95.89;96486.09;5072772;28;20225;-80
2022/12/10 02:45:50;;;;;;;28.00;16.27;;;;;;;7.02;94.85;96493.56;5071635;28;20289;-80
2022/12/10 02:48:19;;;;;;;32.67;17.77;;;;;;;7.15;94.04;96498.13;5073735;28;20281;-80
2022/12/10 02:50:46;;;;;;;34.17;17.60;;;;;;;7.06;94.42;96472.78;5077561;28;20176;-80
2022/12/10 02:53:13;;;;;;;32.47;17.03;;;;;;;7.16;94.49;96491.25;5095552;28;20181;-80
2022/12/10 02:56:02;;;;;;;36.93;16.27;;;;;;;7.25;93.81;96483.16;5093412;28;20230;-81
2022/12/10 02:59:02;;;;;;;30.43;17.17;;;;;;;7.18;94.05;96494.59;5076874;28;20254;-80
2022/12/10 03:02:01;;;;;;;35.70;17.70;;;;;;;7.11;94.17;96490.63;5072079;28;20203;-80
2022/12/10 03:05:00;;;;;;;27.83;15.90;;;;;;;7.19;94.27;96484.22;5090427;28;20216;-80
2022/12/10 03:07:45;;;;;;;33.50;16.13;;;;;;;7.01;94.04;96443.81;5091340;28;20196;-79
2022/12/10 03:10:21;;;;;;;33.33;15.77;;;;;;;7.15;93.32;96469.00;5090697;28;20201;-79
2022/12/10 03:12:54;;;;;;;36.30;16.67;;;;;;;6.99;92.81;96483.38;5099845;28;20297;-79
2022/12/10 03:15:24;;;;;;;34.57;16.57;;;;;;;6.98;93.59;96464.53;5093781;28;20730;-78
2022/12/10 03:17:53;;;;;;;30.23;15.83;;;;;;;6.80;93.10;96461.88;5088822;28;20205;-78
2022/12/10 03:20:23;;;;;;;28.13;16.17;;;;;;;6.81;94.36;96466.09;5088995;28;20265;-78
2022/12/10 03:22:51;;;;;;;26.97;15.37;;;;;;;6.85;93.94;96478.78;5070968;28;20198;-78
2022/12/10 03:25:23;;;;;;;25.67;14.67;;;;;;;6.78;93.76;96464.47;5087653;28;20194;-78
2022/12/10 03:27:54;;;;;;;25.10;14.20;;;;;;;6.93;93.43;96476.75;5089407;28;20693;-77
2022/12/10 03:30:22;;;;;;;23.93;14.27;;;;;;;6.92;93.21;96472.50;5088533;28;20202;-77
2022/12/10 03:32:50;;;;;;;22.13;14.90;;;;;;;6.76;93.51;96458.56;5089201;28;20190;-76
2022/12/10 03:35:20;;;;;;;23.90;14.43;;;;;;;6.69;93.06;96479.47;5088594;28;20375;-77
2022/12/10 03:37:49;;;;;;;23.93;14.10;;;;;;;6.68;94.19;96483.75;5071174;28;20684;-78
2022/12/10 03:40:20;;;;;;;24.20;15.27;;;;;;;6.65;93.30;96478.75;5090935;28;20203;-77
2022/12/10 03:42:47;;;;;;;21.77;13.80;;;;;;;6.70;93.84;96465.72;5088201;28;20195;-78
2022/12/10 03:45:14;;;;;;;25.47;15.40;;;;;;;6.74;92.93;96467.28;5089439;28;20202;-78
2022/12/10 03:47:41;;;;;;;20.53;13.83;;;;;;;6.62;93.29;96465.16;5087877;28;20195;-77
2022/12/10 03:50:10;;;;;;;23.03;14.77;;;;;;;6.55;93.54;96462.81;5088790;28;20293;-78
2022/12/10 03:52:37;;;;;;;20.30;13.90;;;;;;;6.62;94.54;96453.13;5088267;28;20291;-78
2022/12/10 03:58:46;;;;;;;21.50;13.53;;;;;;;6.85;93.13;96471.06;5088691;28;20232;-79
2022/12/10 04:01:15;;;;;;;24.03;14.77;;;;;;;6.97;93.26;96459.44;5069851;28;20186;-78
2022/12/10 04:03:43;;;;;;;25.97;15.97;;;;;;;6.99;92.95;96463.63;5088044;28;20213;-79
2022/12/10 04:06:16;;;;;;;25.33;15.73;;;;;;;6.95;93.45;96461.22;5088345;28;20265;-79
2022/12/10 04:08:44;;;;;;;24.03;14.43;;;;;;;7.17;93.06;96456.91;5087860;28;20190;-79
2022/12/10 04:11:12;;;;;;;26.07;16.27;;;;;;;7.14;92.14;96457.00;5088849;28;20219;-79
2022/12/10 04:16:28;;;;;;;27.40;16.30;;;;;;;7.25;92.08;96452.25;5088099;28;20320;-78
2022/12/10 04:19:02;;;;;;;27.27;16.40;;;;;;;7.31;92.08;96444.28;5090988;28;21043;-78
2022/12/10 04:27:21;;;;;;;27.47;14.77;;;;;;;7.35;92.11;96462.13;5088153;28;20210;-79
2022/12/10 04:29:49;;;;;;;28.97;16.03;;;;;;;7.26;91.17;96452.19;5087789;28;20180;-79
2022/12/10 04:32:17;;;;;;;23.83;16.67;;;;;;;7.25;91.92;96460.78;5088135;28;20188;-79
2022/12/10 04:34:45;;;;;;;27.20;15.60;;;;;;;7.32;92.71;96448.50;5087810;28;20199;-80
2022/12/10 04:37:14;;;;;;;25.43;15.83;;;;;;;7.24;92.17;96453.16;5087690;28;20233;-78
2022/12/10 04:39:41;;;;;;;27.80;16.57;;;;;;;7.05;92.37;96422.19;5087346;28;20200;-80
2022/12/10 04:42:08;;;;;;;26.00;15.63;;;;;;;7.25;92.30;96450.50;5094090;28;20199;-81
2022/12/10 04:44:35;;;;;;;24.13;15.43;;;;;;;7.18;92.74;96445.69;5099667;28;20826;-80
2022/12/10 04:47:04;;;;;;;21.27;15.53;;;;;;;7.18;93.26;96448.25;5095544;28;20200;-80
2022/12/10 04:49:31;;;;;;;32.40;17.00;;;;;;;7.29;93.25;96446.88;5093535;28;20232;-79
2022/12/10 04:51:58;;;;;;;34.33;17.63;;;;;;;7.30;92.91;96446.00;5095063;28;20207;-80
2022/12/10 04:54:26;;;;;;;29.73;17.07;;;;;;;7.35;92.41;96435.50;5094462;28;20206;-81
2022/12/10 04:56:53;;;;;;;26.73;15.97;;;;;;;7.40;92.27;96423.25;5086932;28;20231;-79
2022/12/10 04:59:20;;;;;;;31.33;19.23;;;;;;;7.51;91.56;96443.41;5087813;28;20238;-80
2022/12/10 05:01:47;;;;;;;32.63;19.10;;;;;;;7.42;92.07;96434.34;5086761;28;20205;-79
2022/12/10 05:04:17;;;;;;;30.93;16.87;;;;;;;7.55;92.19;96448.38;5088904;28;20232;-80
2022/12/10 05:06:47;;;;;;;28.40;16.60;;;;;;;7.45;92.30;96434.22;5091420;28;20217;-79
2022/12/10 05:09:14;;;;;;;36.53;17.10;;;;;;;7.51;91.58;96454.56;5086442;28;20230;-78
2022/12/10 05:11:41;;;;;;;29.07;17.13;;;;;;;7.52;93.07;96455.41;5087439;28;20205;-79
2022/12/10 05:14:11;;;;;;;31.53;18.20;;;;;;;7.48;92.60;96426.34;5086417;28;20194;-79
2022/12/10 05:16:37;;;;;;;29.90;19.90;;;;;;;7.54;92.55;96436.41;5088017;28;20228;-82
2022/12/10 05:19:04;;;;;;;30.17;19.87;;;;;;;7.55;92.43;96438.06;5090002;28;20666;-82
2022/12/10 05:24:18;;;;;;;32.60;18.50;;;;;;;7.65;92.02;96435.91;5045960;28;20211;-80
2022/12/10 05:26:46;;;;;;;32.33;17.70;;;;;;;7.59;92.58;96436.19;5086589;28;20210;-79
2022/12/10 05:29:13;;;;;;;31.20;18.17;;;;;;;7.52;92.50;96442.53;5089073;28;20271;-80
2022/12/10 05:31:40;;;;;;;28.67;17.17;;;;;;;7.37;92.50;96413.09;5092385;28;20282;-80
2022/12/10 05:34:10;;;;;;;30.47;17.47;;;;;;;7.58;92.33;96449.97;5093252;28;20200;-78
2022/12/10 05:36:37;;;;;;;26.93;18.13;;;;;;;7.57;92.42;96456.03;5094936;28;20318;-81
2022/12/10 05:39:04;;;;;;;25.87;17.73;;;;;;;7.53;92.00;96463.06;5090859;28;20217;-80
2022/12/10 05:41:35;;;;;;;30.17;17.87;;;;;;;7.53;92.49;96460.47;5090189;28;20211;-81
2022/12/10 05:44:03;;;;;;;31.23;19.10;;;;;;;7.44;93.05;96463.44;5069945;28;20224;-80
2022/12/10 05:46:31;;;;;;;31.63;18.73;;;;;;;7.58;92.25;96448.25;5086777;28;20203;-79
2022/12/10 05:49:00;;;;;;;31.13;17.97;;;;;;;7.60;92.88;96441.28;5087502;28;20190;-78
2022/12/10 05:51:30;;;;;;;33.47;19.00;;;;;;;7.64;91.90;96442.81;5091188;28;20196;-78
2022/12/10 05:53:58;;;;;;;33.27;19.67;;;;;;;7.43;92.20;96404.25;5089925;28;20204;-78
2022/12/10 05:56:26;;;;;;;31.63;19.87;;;;;;;7.60;91.95;96446.44;5090939;28;20240;-77
2022/12/10 05:58:56;;;;;;;29.70;19.30;;;;;;;7.62;92.07;96457.50;5091211;28;20221;-78
2022/12/10 06:01:26;;;;;;;37.83;20.00;;;;;;;7.60;92.11;96445.59;5071973;28;20188;-78
2022/12/10 06:03:53;;;;;;;32.90;19.83;;;;;;;7.55;92.24;96432.91;5094640;28;20195;-80
2022/12/10 06:06:27;;;;;;;32.90;20.67;;;;;;;7.64;92.31;96434.25;5095849;28;20238;-78
2022/12/10 06:08:54;;;;;;;35.27;20.87;;;;;;;7.65;91.96;96435.91;5092357;28;20192;-80
2022/12/10 06:11:21;;;;;;;30.93;21.37;;;;;;;7.68;92.20;96439.22;5090729;28;20200;-80
2022/12/10 06:13:49;;;;;;;40.10;23.50;;;;;;;7.48;92.53;96416.03;5090920;28;20219;-80
2022/12/10 06:16:22;;;;;;;39.20;23.40;;;;;;;7.56;92.81;96442.31;5090601;28;20870;-80
2022/12/10 06:18:50;;;;;;;45.87;27.43;;;;;;;7.73;93.29;96439.81;5087305;28;20964;-78
2022/12/10 06:21:18;;;;;;;42.90;27.20;;;;;;;7.73;92.28;96441.59;5071984;28;20718;-80
2022/12/10 06:23:46;;;;;;;43.03;27.33;;;;;;;7.80;92.50;96443.81;5089824;28;20223;-78
2022/12/10 06:26:19;;;;;;;42.93;24.73;;;;;;;7.87;92.47;96452.13;5091000;28;20219;-79
2022/12/10 06:28:47;;;;;;;40.93;25.43;;;;;;;7.76;91.71;96431.97;5090652;28;20227;-80
2022/12/10 06:31:15;;;;;;;42.97;25.90;;;;;;;7.81;92.11;96440.31;5090273;28;20196;-78
2022/12/10 06:33:42;;;;;;;45.43;25.87;;;;;;;7.79;92.62;96436.97;5090287;28;20206;-80
2022/12/10 06:36:12;;;;;;;56.77;28.03;;;;;;;7.74;93.21;96441.50;5091553;28;20671;-82
2022/12/10 06:38:40;;;;;;;46.73;26.43;;;;;;;7.84;93.71;96441.94;5091857;28;20313;-80
2022/12/10 06:41:09;;;;;;;39.30;24.77;;;;;;;7.74;93.62;96433.78;5090271;28;20290;-80
2022/12/10 06:43:37;;;;;;;39.90;22.77;;;;;;;7.75;93.46;96429.47;5090357;28;20203;-78
2022/12/10 06:46:11;;;;;;;42.20;22.83;;;;;;;7.77;94.21;96428.47;5090905;28;20184;-79
2022/12/10 06:48:38;;;;;;;39.80;24.67;;;;;;;7.83;94.02;96432.53;5086925;28;20200;-79
2022/12/10 06:51:06;;;;;;;39.93;24.07;;;;;;;7.83;94.58;96433.34;5089436;28;20211;-80
2022/12/10 06:53:35;;;;;;;41.00;26.17;;;;;;;7.93;93.71;96428.63;5089474;28;20198;-83
2022/12/10 06:56:03;;;;;;;42.27;24.97;;;;;;;7.89;94.01;96430.50;5081677;28;20212;-79
2022/12/10 06:58:31;;;;;;;44.53;23.70;;;;;;;7.96;94.73;96423.31;5077323;28;20227;-79
2022/12/10 07:01:20;;;;;;;36.97;22.20;;;;;;;7.93;94.49;96423.47;5069682;28;20208;-79
2022/12/10 07:03:55;;;;;;;31.40;19.90;;;;;;;7.92;93.88;96419.22;5068868;28;20820;-82
2022/12/10 07:06:23;;;;;;;34.83;21.50;;;;;;;7.96;94.55;96424.19;5069363;28;20842;-80
2022/12/10 07:08:50;;;;;;;41.33;25.80;;;;;;;7.94;94.79;96420.81;5069648;28;20204;-79
2022/12/10 07:11:20;;;;;;;41.37;23.57;;;;;;;8.20;94.30;96432.53;5070501;28;20693;-80
2022/12/10 07:13:47;;;;;;;42.17;23.10;;;;;;;8.22;93.51;96420.41;5070398;28;20216;-79
2022/12/10 07:16:26;;;;;;;37.57;20.53;;;;;;;8.26;94.61;96427.13;5068889;28;20690;-81
2022/12/10 07:18:54;;;;;;;37.70;22.13;;;;;;;8.43;93.61;96428.94;5069291;28;20294;-79
2022/12/10 07:21:23;;;;;;;39.60;22.13;;;;;;;8.17;93.33;96401.72;5085196;28;20204;-80
2022/12/10 07:23:53;;;;;;;35.80;21.20;;;;;;;8.62;93.10;96442.59;5088930;28;20202;-81
2022/12/10 07:26:21;;;;;;;46.73;25.03;;;;;;;8.44;93.27;96421.09;5088614;28;20227;-80
2022/12/10 07:28:48;;;;;;;36.43;22.30;;;;;;;8.63;93.57;96439.13;5070648;28;20248;-80
2022/12/10 07:31:20;;;;;;;41.97;20.83;;;;;;;8.63;93.31;96427.06;5081029;28;20217;-79
2022/12/10 07:33:48;;;;;;;33.20;20.20;;;;;;;8.66;92.88;96415.75;5078895;28;20201;-80
2022/12/10 07:36:15;;;;;;;39.63;20.13;;;;;;;8.72;93.17;96418.88;5079541;28;20220;-77
2022/12/10 07:38:43;;;;;;;32.17;19.80;;;;;;;8.67;93.17;96414.84;5070400;28;20209;-79
2022/12/10 07:41:12;;;;;;;33.70;21.30;;;;;;;8.66;93.57;96411.44;5090407;28;20219;-79
2022/12/10 07:43:42;;;;;;;42.23;24.07;;;;;;;8.83;93.71;96419.19;5088167;28;20245;-79
2022/12/10 07:46:16;;;;;;;39.07;21.67;;;;;;;8.94;93.10;96418.69;5088492;28;20287;-79
2022/12/10 07:48:44;;;;;;;38.57;22.63;;;;;;;8.86;94.03;96413.06;5053737;28;20196;-80
2022/12/10 07:51:12;;;;;;;39.20;22.27;;;;;;;8.95;93.97;96415.16;5087672;28;20282;-79
2022/12/10 07:53:39;;;;;;;40.10;24.53;;;;;;;8.98;94.08;96413.25;5088965;28;20205;-78
2022/12/10 07:56:07;;;;;;;36.10;22.83;;;;;;;9.07;93.78;96406.00;5086975;28;20216;-79
2022/12/10 07:58:36;;;;;;;46.63;24.30;;;;;;;9.09;93.27;96397.22;5089971;28;20686;-79
2022/12/10 08:01:08;;;;;;;39.53;23.93;;;;;;;9.19;92.93;96406.19;5087838;28;20196;-78
2022/12/10 08:03:35;;;;;;;37.93;23.57;;;;;;;9.28;93.14;96418.66;5088304;28;20261;-78
2022/12/10 08:06:08;;;;;;;39.97;25.97;;;;;;;9.25;93.03;96399.91;5088663;28;20239;-80
2022/12/10 08:08:37;;;;;;;42.57;24.27;;;;;;;9.42;93.13;96413.63;5087485;28;20203;-78
2022/12/10 08:11:04;;;;;;;40.07;25.10;;;;;;;9.51;92.82;96413.16;5088114;28;20235;-79
2022/12/10 08:13:32;;;;;;;44.97;27.07;;;;;;;9.61;92.69;96409.16;5086613;28;20612;-80
2022/12/10 08:16:13;;;;;;;38.97;25.67;;;;;;;9.72;92.23;96403.44;5087228;28;20238;-79
2022/12/10 08:18:41;;;;;;;46.23;27.63;;;;;;;9.71;91.94;96402.59;5089064;28;20311;-80
2022/12/10 08:21:11;;;;;;;44.30;28.60;;;;;;;9.87;91.88;96400.03;5087428;28;20200;-79
2022/12/10 08:23:38;;;;;;;58.10;31.10;;;;;;;10.01;91.86;96401.91;5088382;28;20200;-78
2022/12/10 08:26:07;;;;;;;68.33;38.63;;;;;;;10.02;91.12;96388.88;5086474;28;20291;-79
2022/12/10 08:28:35;;;;;;;84.33;45.77;;;;;;;10.11;91.17;96388.41;5087627;28;20628;-79
2022/12/10 08:31:04;;;;;;;55.47;33.87;;;;;;;10.07;90.97;96398.97;5089509;28;20195;-80
2022/12/10 08:33:34;;;;;;;54.10;32.40;;;;;;;10.21;91.40;96410.28;5089262;28;20272;-80
2022/12/10 08:36:03;;;;;;;57.63;34.43;;;;;;;10.15;91.43;96407.19;5088410;28;20287;-80
2022/12/10 08:38:31;;;;;;;57.70;35.17;;;;;;;10.39;91.05;96398.91;5089703;28;20316;-78
2022/12/10 08:40:58;;;;;;;62.00;34.83;;;;;;;10.57;90.19;96386.72;5069611;28;20196;-80
2022/12/10 08:43:25;;;;;;;50.80;34.37;;;;;;;10.57;90.38;96402.25;5086790;28;20201;-80
2022/12/10 08:45:54;;;;;;;51.50;29.97;;;;;;;10.63;89.99;96388.97;5087495;28;20224;-80
2022/12/10 08:48:21;;;;;;;49.23;28.37;;;;;;;10.81;89.99;96379.31;5068351;28;20193;-80
2022/12/10 08:50:48;;;;;;;46.63;27.17;;;;;;;10.91;89.96;96376.09;5086873;28;20210;-81
2022/12/10 08:53:15;;;;;;;49.23;27.53;;;;;;;10.97;89.83;96370.56;5069255;28;20200;-81
2022/12/10 08:55:43;;;;;;;50.50;28.93;;;;;;;11.34;89.59;96364.91;5087058;28;20192;-79
2022/12/10 08:58:14;;;;;;;54.43;30.50;;;;;;;11.25;88.87;96349.06;5088561;28;20224;-80
2022/12/10 09:00:41;;;;;;;55.73;31.47;;;;;;;11.47;88.60;96365.00;5080921;28;20189;-79
2022/12/10 09:03:49;;;;;;;61.87;30.43;;;;;;;11.55;88.26;96357.59;5067527;28;20196;-80
2022/12/10 09:07:10;;;;;;;45.47;27.70;;;;;;;11.74;88.25;96363.38;5067272;28;20193;-79
2022/12/10 09:10:31;;;;;;;45.13;28.60;;;;;;;11.94;86.81;96357.78;5067137;28;20340;-81
2022/12/10 09:13:51;;;;;;;38.03;25.30;;;;;;;11.99;86.79;96347.13;5066657;28;20220;-79
2022/12/10 09:17:12;;;;;;;41.23;25.37;;;;;;;11.93;86.37;96332.75;5067011;28;20204;-80
2022/12/10 09:20:32;;;;;;;44.00;25.07;;;;;;;12.03;85.63;96343.41;5067528;28;20210;-80
2022/12/10 09:23:53;;;;;;;38.63;23.83;;;;;;;12.20;85.97;96345.75;5066449;28;20260;-79
2022/12/10 09:27:14;;;;;;;46.27;24.17;;;;;;;12.16;86.03;96341.69;5065325;28;20199;-79
2022/12/10 09:30:34;;;;;;;41.10;25.47;;;;;;;12.29;85.07;96298.47;5066237;28;20194;-79
2022/12/10 09:33:55;;;;;;;41.33;22.43;;;;;;;12.30;85.37;96305.31;5066355;28;20199;-80
2022/12/10 09:37:15;;;;;;;42.87;24.37;;;;;;;12.25;84.94;96258.88;5072508;28;20281;-80
2022/12/10 09:40:36;;;;;;;40.93;24.03;;;;;;;12.64;84.61;96302.19;5065251;28;20195;-80
2022/12/10 09:43:39;;;;;;;44.23;24.60;;;;;;;12.57;85.22;96290.53;5067114;28;20198;-80
2022/12/10 09:46:20;;;;;;;39.27;22.80;;;;;;;12.55;84.78;96284.59;5066424;28;20315;-80
2022/12/10 09:49:28;;;;;;;44.40;24.13;;;;;;;12.70;84.82;96291.41;5065057;28;20223;-80
2022/12/10 09:52:50;;;;;;;41.20;24.90;;;;;;;13.00;83.83;96280.75;5065067;28;20355;-79
2022/12/10 09:56:11;;;;;;;33.93;19.37;;;;;;;12.99;84.06;96281.66;5066131;28;20194;-80
2022/12/10 09:59:37;;;;;;;36.13;21.10;;;;;;;13.26;83.77;96266.81;5064712;28;20223;-82
2022/12/10 10:02:44;;;;;;;34.23;21.80;;;;;;;13.36;83.18;96256.59;5064573;28;20684;-79
2022/12/10 10:06:04;;;;;;;40.60;24.33;;;;;;;13.50;83.24;96253.88;5064318;28;20629;-80
2022/12/10 10:09:26;;;;;;;41.20;23.37;;;;;;;13.21;82.27;96224.69;5065678;28;20205;-79
2022/12/10 10:12:53;;;;;;;42.83;24.43;;;;;;;13.57;81.89;96252.53;5065204;28;20216;-80
2022/12/10 10:16:15;;;;;;;45.50;24.80;;;;;;;13.65;82.09;96247.63;5063950;28;20190;-81
2022/12/10 10:19:40;;;;;;;41.20;24.33;;;;;;;13.63;81.76;96236.47;5064541;28;20193;-81
2022/12/10 10:23:01;;;;;;;43.07;23.30;;;;;;;13.57;82.33;96229.94;5065497;28;20188;-81
2022/12/10 10:26:34;;;;;;;46.93;23.57;;;;;;;13.74;81.90;96233.97;5066528;28;20198;-80
2022/12/10 10:30:08;;;;;;;40.33;24.63;;;;;;;13.37;81.99;96159.47;4960820;28;20239;-80
2022/12/10 10:33:56;;;;;;;51.20;24.37;;;;;;;12.94;81.59;96060.25;4967529;28;20200;-80
2022/12/10 10:37:25;;;;;;;36.80;20.27;;;;;;;13.07;82.39;96107.84;4968781;28;20389;-80
2022/12/10 10:41:02;;;;;;;37.10;18.97;;;;;;;13.76;82.85;96206.06;4987005;28;20235;-80
2022/12/10 10:43:44;;;;;;;42.67;20.50;;;;;;;13.90;82.95;96203.28;4997455;28;20749;-79
2022/12/10 10:46:36;;;;;;;35.70;20.43;;;;;;;13.98;81.95;96202.72;5000737;28;20211;-80
2022/12/10 10:49:26;;;;;;;34.53;21.53;;;;;;;13.96;82.31;96196.81;4992236;28;20202;-80
2022/12/10 10:51:59;;;;;;;40.20;21.70;;;;;;;14.03;82.17;96193.66;5007447;28;20204;-80
2022/12/10 10:54:47;;;;;;;35.60;19.73;;;;;;;14.19;81.67;96183.78;4994068;28;20297;-80
2022/12/10 10:57:21;;;;;;;30.67;18.20;;;;;;;14.34;81.69;96174.03;4991717;28;20255;-79
2022/12/10 10:59:51;;;;;;;29.63;17.33;;;;;;;14.41;81.01;96176.06;4991930;28;20290;-81
2022/12/10 11:02:29;;;;;;;33.20;17.90;;;;;;;14.59;81.01;96184.25;4988669;28;20202;-81
2022/12/10 11:05:00;;;;;;;31.07;14.97;;;;;;;14.22;81.44;96160.09;4989149;28;20233;-80
2022/12/10 11:07:40;;;;;;;26.70;14.57;;;;;;;14.45;80.60;96174.88;5054130;28;20262;-81
2022/12/10 11:10:21;;;;;;;27.40;14.07;;;;;;;14.68;80.83;96179.22;5070201;28;20250;-81
2022/12/10 11:12:56;;;;;;;30.83;16.77;;;;;;;14.39;80.04;96136.28;5070004;28;20694;-81
2022/12/10 11:15:24;;;;;;;34.10;15.13;;;;;;;14.72;80.04;96169.38;5055499;28;20636;-80
2022/12/10 11:17:53;;;;;;;25.47;14.33;;;;;;;14.82;80.05;96162.50;5048109;28;20723;-80
2022/12/10 11:20:23;;;;;;;25.63;14.47;;;;;;;14.71;79.95;96161.69;5048554;28;20322;-81
2022/12/10 11:22:59;;;;;;;27.07;14.43;;;;;;;14.77;80.02;96161.22;5048489;28;20699;-81
2022/12/10 11:25:37;;;;;;;31.70;14.67;;;;;;;14.72;80.16;96152.91;5047762;28;20951;-79
2022/12/10 11:29:05;;;;;;;26.57;14.43;;;;;;;14.80;80.07;96155.75;5048704;28;20288;-80
2022/12/10 11:31:42;;;;;;;24.13;13.27;;;;;;;14.60;80.58;96147.69;5016075;28;20197;-79
2022/12/10 11:34:09;;;;;;;29.20;13.57;;;;;;;14.79;80.86;96138.47;5049475;28;20195;-80
2022/12/10 11:37:05;;;;;;;19.63;11.43;;;;;;;14.94;79.82;96137.28;5048915;28;20197;-80
2022/12/10 11:39:38;;;;;;;20.83;11.03;;;;;;;15.07;79.57;96143.19;5048245;28;20619;-81
2022/12/10 11:42:26;;;;;;;18.90;10.33;;;;;;;15.23;78.93;96152.31;5047676;28;20197;-81
2022/12/10 11:45:08;;;;;;;20.17;10.17;;;;;;;15.20;78.91;96143.91;5048625;28;20227;-80
2022/12/10 11:47:42;;;;;;;20.37;10.90;;;;;;;15.24;78.88;96155.75;5052156;28;20201;-80
2022/12/10 11:50:28;;;;;;;21.10;9.87;;;;;;;15.05;78.26;96093.78;5068267;28;20211;-79
2022/12/10 11:53:04;;;;;;;24.90;10.90;;;;;;;15.15;79.38;96135.59;5066230;28;20651;-80
2022/12/10 11:55:59;;;;;;;20.53;11.07;;;;;;;14.76;79.40;96078.75;5067622;28;20205;-79
2022/12/10 11:58:58;;;;;;;24.90;10.17;;;;;;;15.11;79.94;96128.97;5071962;28;20240;-79
2022/12/10 12:01:48;;;;;;;26.40;11.00;;;;;;;15.29;79.31;96130.97;5087598;28;20668;-77
2022/12/10 12:04:30;;;;;;;28.40;12.07;;;;;;;15.28;78.86;96128.50;5088011;28;20680;-80
2022/12/10 12:07:20;;;;;;;33.93;13.60;;;;;;;15.11;78.76;96092.47;5088385;28;20218;-81
2022/12/10 12:10:25;;;;;;;32.27;14.17;;;;;;;15.25;78.80;96115.69;5087651;28;20620;-78
2022/12/10 12:13:01;;;;;;;25.10;14.57;;;;;;;15.18;79.40;96104.09;5087586;28;20195;-72
2022/12/10 12:16:02;;;;;;;29.17;13.93;;;;;;;15.03;79.56;96090.47;5146499;27;21304;-70
2022/12/10 12:18:48;;;;;;;31.47;16.10;;;;;;;15.05;79.56;96085.13;5146565;27;20190;-76
2022/12/10 12:21:16;;;;;;;26.60;15.37;;;;;;;14.69;80.58;96041.94;5145412;27;20639;-74
2022/12/10 12:23:54;;;;;;;30.37;15.53;;;;;;;14.81;80.89;96072.25;5146954;27;20274;-75